sensor_id;sensor_type;location;lat;lon;timestamp;pressure;altitude;pressure_sealevel;temperature;humidity
12775;BME280;6451;42.630;23.382;2023-05-21T00:01:19;94202.97;;;19.03;100.00
12775;BME280;6451;42.630;23.382;2023-05-21T00:03:46;94242.91;;;19.22;100.00
12775;BME280;6451;42.630;23.382;2023-05-21T00:06:14;94196.44;;;18.79;100.00
12775;BME280;6451;42.630;23.382;2023-05-21T00:08:41;94232.31;;;19.21;100.00
12775;BME280;6451;42.630;23.382;2023-05-21T00:11:08;94232.09;;;18.94;100.00
12775;BME280;6451;42.630;23.382;2023-05-21T00:13:37;94244.97;;;19.07;100.00
12775;BME280;6451;42.630;23.382;2023-05-21T00:16:05;94232.91;;;18.94;100.00
12775;BME280;6451;42.630;23.382;2023-05-21T00:18:32;94238.69;;;19.07;100.00
12775;BME280;6451;42.630;23.382;2023-05-21T00:20:59;94241.03;;;19.12;100.00
12775;BME280;6451;42.630;23.382;2023-05-21T00:23:26;94234.78;;;19.01;100.00
12775;BME280;6451;42.630;23.382;2023-05-21T00:25:57;94230.47;;;19.00;100.00
12775;BME280;6451;42.630;23.382;2023-05-21T00:28:24;94223.00;;;19.00;100.00
12775;BME280;6451;42.630;23.382;2023-05-21T00:30:53;94211.34;;;18.82;100.00
12775;BME280;6451;42.630;23.382;2023-05-21T00:33:20;94221.31;;;18.44;100.00
12775;BME280;6451;42.630;23.382;2023-05-21T00:35:50;94223.50;;;18.84;100.00
12775;BME280;6451;42.630;23.382;2023-05-21T00:38:17;94218.41;;;18.83;100.00
12775;BME280;6451;42.630;23.382;2023-05-21T00:40:44;94223.50;;;18.88;100.00
12775;BME280;6451;42.630;23.382;2023-05-21T00:43:11;94218.81;;;18.81;100.00
12775;BME280;6451;42.630;23.382;2023-05-21T00:45:39;94223.84;;;18.94;100.00
12775;BME280;6451;42.630;23.382;2023-05-21T00:48:10;94208.19;;;18.83;100.00
12775;BME280;6451;42.630;23.382;2023-05-21T00:50:39;94225.97;;;18.61;100.00
12775;BME280;6451;42.630;23.382;2023-05-21T00:53:08;94224.81;;;18.48;100.00
12775;BME280;6451;42.630;23.382;2023-05-21T00:55:35;94224.03;;;18.54;100.00
12775;BME280;6451;42.630;23.382;2023-05-21T00:58:02;94209.50;;;18.54;100.00
12775;BME280;6451;42.630;23.382;2023-05-21T01:00:30;94220.53;;;18.50;100.00
12775;BME280;6451;42.630;23.382;2023-05-21T01:02:59;94227.22;;;18.39;100.00
12775;BME280;6451;42.630;23.382;2023-05-21T01:05:27;94159.47;;;18.11;100.00
12775;BME280;6451;42.630;23.382;2023-05-21T01:07:55;94219.69;;;18.68;100.00
12775;BME280;6451;42.630;23.382;2023-05-21T01:10:23;94217.28;;;18.73;100.00
12775;BME280;6451;42.630;23.382;2023-05-21T01:12:51;94205.53;;;18.69;100.00
12775;BME280;6451;42.630;23.382;2023-05-21T01:15:19;94210.19;;;18.79;100.00
12775;BME280;6451;42.630;23.382;2023-05-21T01:17:46;94207.03;;;18.81;100.00
12775;BME280;6451;42.630;23.382;2023-05-21T01:20:15;94211.34;;;18.82;100.00
12775;BME280;6451;42.630;23.382;2023-05-21T01:22:50;94208.19;;;18.83;100.00
12775;BME280;6451;42.630;23.382;2023-05-21T01:25:17;94210.13;;;18.90;100.00
12775;BME280;6451;42.630;23.382;2023-05-21T01:27:45;94192.44;;;18.95;100.00
12775;BME280;6451;42.630;23.382;2023-05-21T01:30:14;94202.94;;;19.07;100.00
12775;BME280;6451;42.630;23.382;2023-05-21T01:32:47;94189.13;;;19.14;100.00
12775;BME280;6451;42.630;23.382;2023-05-21T01:35:19;94193.00;;;19.24;100.00
12775;BME280;6451;42.630;23.382;2023-05-21T01:37:52;94187.56;;;19.13;100.00
12775;BME280;6451;42.630;23.382;2023-05-21T01:40:24;94190.59;;;19.29;100.00
12775;BME280;6451;42.630;23.382;2023-05-21T01:42:53;94154.44;;;18.79;100.00
12775;BME280;6451;42.630;23.382;2023-05-21T01:45:21;94208.38;;;19.14;100.00
12775;BME280;6451;42.630;23.382;2023-05-21T01:47:50;94207.16;;;19.22;100.00
12775;BME280;6451;42.630;23.382;2023-05-21T01:50:21;94196.34;;;18.94;100.00
12775;BME280;6451;42.630;23.382;2023-05-21T01:52:51;94195.09;;;19.05;100.00
12775;BME280;6451;42.630;23.382;2023-05-21T01:55:19;94179.09;;;18.86;100.00
12775;BME280;6451;42.630;23.382;2023-05-21T01:57:49;94192.28;;;19.12;100.00
12775;BME280;6451;42.630;23.382;2023-05-21T02:00:17;94193.50;;;19.11;100.00
12775;BME280;6451;42.630;23.382;2023-05-21T02:02:44;94186.81;;;19.09;100.00
12775;BME280;6451;42.630;23.382;2023-05-21T02:05:11;94189.91;;;19.18;100.00
12775;BME280;6451;42.630;23.382;2023-05-21T02:07:38;94192.16;;;19.30;100.00
12775;BME280;6451;42.630;23.382;2023-05-21T02:10:08;94181.66;;;19.18;100.00
12775;BME280;6451;42.630;23.382;2023-05-21T02:12:35;94189.81;;;19.29;100.00
12775;BME280;6451;42.630;23.382;2023-05-21T02:15:02;94192.31;;;19.09;100.00
12775;BME280;6451;42.630;23.382;2023-05-21T02:17:30;94179.00;;;19.04;100.00
12775;BME280;6451;42.630;23.382;2023-05-21T02:19:58;94191.66;;;18.94;100.00
12775;BME280;6451;42.630;23.382;2023-05-21T02:22:32;94118.03;;;18.53;100.00
12775;BME280;6451;42.630;23.382;2023-05-21T02:24:59;94181.63;;;18.55;100.00
12775;BME280;6451;42.630;23.382;2023-05-21T02:27:27;94184.59;;;18.86;100.00
12775;BME280;6451;42.630;23.382;2023-05-21T02:29:56;94185.88;;;18.74;100.00
12775;BME280;6451;42.630;23.382;2023-05-21T02:32:23;94175.25;;;18.80;100.00
12775;BME280;6451;42.630;23.382;2023-05-21T02:34:50;94178.88;;;18.59;100.00
12775;BME280;6451;42.630;23.382;2023-05-21T02:37:17;94180.78;;;18.62;100.00
12775;BME280;6451;42.630;23.382;2023-05-21T02:39:44;94183.94;;;18.60;100.00
12775;BME280;6451;42.630;23.382;2023-05-21T02:42:12;94178.31;;;18.85;100.00
12775;BME280;6451;42.630;23.382;2023-05-21T02:44:40;94173.22;;;18.87;100.00
12775;BME280;6451;42.630;23.382;2023-05-21T02:47:07;94168.56;;;18.81;100.00
12775;BME280;6451;42.630;23.382;2023-05-21T02:49:34;94160.69;;;18.83;100.00
12775;BME280;6451;42.630;23.382;2023-05-21T02:52:01;94166.50;;;18.96;100.00
12775;BME280;6451;42.630;23.382;2023-05-21T02:54:28;94177.41;;;19.06;100.00
12775;BME280;6451;42.630;23.382;2023-05-21T02:56:55;94176.69;;;18.99;100.00
12775;BME280;6451;42.630;23.382;2023-05-21T02:59:22;94170.75;;;19.00;100.00
12775;BME280;6451;42.630;23.382;2023-05-21T03:01:50;94174.38;;;18.90;100.00
12775;BME280;6451;42.630;23.382;2023-05-21T03:04:17;94163.47;;;18.79;100.00
12775;BME280;6451;42.630;23.382;2023-05-21T03:06:46;94139.50;;;18.80;100.00
12775;BME280;6451;42.630;23.382;2023-05-21T03:09:14;94154.66;;;18.99;100.00
12775;BME280;6451;42.630;23.382;2023-05-21T03:11:42;94153.97;;;18.87;100.00
12775;BME280;6451;42.630;23.382;2023-05-21T03:14:09;94139.88;;;18.82;100.00
12775;BME280;6451;42.630;23.382;2023-05-21T03:16:36;94160.59;;;18.94;100.00
12775;BME280;6451;42.630;23.382;2023-05-21T03:19:07;94185.25;;;19.08;100.00
12775;BME280;6451;42.630;23.382;2023-05-21T03:21:34;94178.91;;;19.18;100.00
12775;BME280;6451;42.630;23.382;2023-05-21T03:24:01;94170.19;;;19.23;100.00
12775;BME280;6451;42.630;23.382;2023-05-21T03:26:28;94190.00;;;19.04;100.00
12775;BME280;6451;42.630;23.382;2023-05-21T03:28:55;94189.22;;;19.00;100.00
12775;BME280;6451;42.630;23.382;2023-05-21T03:31:23;94159.47;;;18.87;100.00
12775;BME280;6451;42.630;23.382;2023-05-21T03:33:50;94182.50;;;19.08;100.00
12775;BME280;6451;42.630;23.382;2023-05-21T03:36:19;94175.84;;;19.05;100.00
12775;BME280;6451;42.630;23.382;2023-05-21T03:38:46;94158.97;;;19.03;100.00
12775;BME280;6451;42.630;23.382;2023-05-21T03:41:13;94185.19;;;19.15;100.00
12775;BME280;6451;42.630;23.382;2023-05-21T03:43:40;94195.50;;;19.04;100.00
12775;BME280;6451;42.630;23.382;2023-05-21T03:46:08;94189.53;;;19.12;100.00
12775;BME280;6451;42.630;23.382;2023-05-21T03:48:34;94181.59;;;19.25;100.00
12775;BME280;6451;42.630;23.382;2023-05-21T03:51:01;94174.59;;;19.13;100.00
12775;BME280;6451;42.630;23.382;2023-05-21T03:53:33;94181.72;;;19.11;100.00
12775;BME280;6451;42.630;23.382;2023-05-21T03:55:59;94147.03;;;19.21;100.00
12775;BME280;6451;42.630;23.382;2023-05-21T03:58:27;94183.47;;;19.35;100.00
12775;BME280;6451;42.630;23.382;2023-05-21T04:00:54;94177.84;;;19.50;100.00
12775;BME280;6451;42.630;23.382;2023-05-21T04:03:21;94180.72;;;19.32;100.00
12775;BME280;6451;42.630;23.382;2023-05-21T04:05:48;94178.34;;;19.37;100.00
12775;BME280;6451;42.630;23.382;2023-05-21T04:08:15;94183.19;;;19.71;100.00
12775;BME280;6451;42.630;23.382;2023-05-21T04:10:43;94149.06;;;19.13;100.00
12775;BME280;6451;42.630;23.382;2023-05-21T04:13:10;94184.81;;;19.65;100.00
12775;BME280;6451;42.630;23.382;2023-05-21T04:15:37;94185.03;;;19.81;100.00
12775;BME280;6451;42.630;23.382;2023-05-21T04:18:04;94185.06;;;19.78;100.00
12775;BME280;6451;42.630;23.382;2023-05-21T04:20:31;94158.78;;;19.69;100.00
12775;BME280;6451;42.630;23.382;2023-05-21T04:22:58;94172.88;;;19.79;100.00
12775;BME280;6451;42.630;23.382;2023-05-21T04:25:25;94191.59;;;19.94;100.00
12775;BME280;6451;42.630;23.382;2023-05-21T04:27:53;94178.78;;;20.15;100.00
12775;BME280;6451;42.630;23.382;2023-05-21T04:30:21;94180.91;;;20.34;100.00
12775;BME280;6451;42.630;23.382;2023-05-21T04:32:48;94187.28;;;20.27;100.00
12775;BME280;6451;42.630;23.382;2023-05-21T04:35:17;94172.09;;;20.50;100.00
12775;BME280;6451;42.630;23.382;2023-05-21T04:37:44;94190.19;;;20.51;100.00
12775;BME280;6451;42.630;23.382;2023-05-21T04:40:11;94185.69;;;20.64;100.00
12775;BME280;6451;42.630;23.382;2023-05-21T04:42:43;94139.22;;;20.32;100.00
12775;BME280;6451;42.630;23.382;2023-05-21T04:45:12;94183.91;;;20.77;97.54
12775;BME280;6451;42.630;23.382;2023-05-21T04:47:39;94185.31;;;21.16;94.45
12775;BME280;6451;42.630;23.382;2023-05-21T04:50:07;94188.88;;;21.17;90.80
12775;BME280;6451;42.630;23.382;2023-05-21T04:52:35;94180.13;;;21.22;91.21
12775;BME280;6451;42.630;23.382;2023-05-21T04:55:03;94184.34;;;21.30;90.67
12775;BME280;6451;42.630;23.382;2023-05-21T04:57:30;94179.81;;;21.16;87.46
12775;BME280;6451;42.630;23.382;2023-05-21T04:59:57;94192.75;;;21.46;87.34
12775;BME280;6451;42.630;23.382;2023-05-21T05:02:25;94194.47;;;21.63;86.58
12775;BME280;6451;42.630;23.382;2023-05-21T05:04:52;94181.59;;;21.77;89.46
12775;BME280;6451;42.630;23.382;2023-05-21T05:07:19;94189.66;;;21.44;88.99
12775;BME280;6451;42.630;23.382;2023-05-21T05:09:45;94177.63;;;21.31;87.34
12775;BME280;6451;42.630;23.382;2023-05-21T05:12:12;94178.81;;;21.77;84.51
12775;BME280;6451;42.630;23.382;2023-05-21T05:14:40;94180.13;;;21.72;83.39
12775;BME280;6451;42.630;23.382;2023-05-21T05:17:07;94189.34;;;22.29;81.50
12775;BME280;6451;42.630;23.382;2023-05-21T05:19:36;94183.16;;;22.61;80.67
12775;BME280;6451;42.630;23.382;2023-05-21T05:22:03;94176.09;;;22.40;81.81
12775;BME280;6451;42.630;23.382;2023-05-21T05:24:30;94200.63;;;22.18;84.98
12775;BME280;6451;42.630;23.382;2023-05-21T05:26:57;94176.53;;;22.18;83.85
12775;BME280;6451;42.630;23.382;2023-05-21T05:29:25;94194.34;;;22.73;82.72
12775;BME280;6451;42.630;23.382;2023-05-21T05:31:52;94195.63;;;22.69;79.55
12775;BME280;6451;42.630;23.382;2023-05-21T05:34:19;94196.41;;;22.89;82.37
12775;BME280;6451;42.630;23.382;2023-05-21T05:36:47;94189.19;;;22.36;79.86
12775;BME280;6451;42.630;23.382;2023-05-21T05:39:14;94201.41;;;22.18;82.09
12775;BME280;6451;42.630;23.382;2023-05-21T05:41:41;94190.69;;;22.60;79.76
12775;BME280;6451;42.630;23.382;2023-05-21T05:44:08;94189.13;;;22.19;78.68
12775;BME280;6451;42.630;23.382;2023-05-21T05:46:35;94188.72;;;22.41;78.04
12775;BME280;6451;42.630;23.382;2023-05-21T05:49:02;94190.09;;;22.69;76.29
12775;BME280;6451;42.630;23.382;2023-05-21T05:51:28;94183.31;;;22.54;77.21
12775;BME280;6451;42.630;23.382;2023-05-21T05:53:57;94185.31;;;23.09;78.62
12775;BME280;6451;42.630;23.382;2023-05-21T05:56:24;94153.31;;;23.24;77.21
12775;BME280;6451;42.630;23.382;2023-05-21T05:58:52;94188.25;;;23.02;76.82
12775;BME280;6451;42.630;23.382;2023-05-21T06:01:18;94188.34;;;22.79;77.85
12775;BME280;6451;42.630;23.382;2023-05-21T06:03:49;94176.47;;;22.98;77.02
12775;BME280;6451;42.630;23.382;2023-05-21T06:06:16;94181.03;;;22.88;77.88
12775;BME280;6451;42.630;23.382;2023-05-21T06:08:43;94173.22;;;23.36;79.11
12775;BME280;6451;42.630;23.382;2023-05-21T06:11:12;94182.28;;;23.20;78.04
12775;BME280;6451;42.630;23.382;2023-05-21T06:13:41;94181.00;;;23.41;76.58
12775;BME280;6451;42.630;23.382;2023-05-21T06:16:08;94154.69;;;23.49;76.38
12775;BME280;6451;42.630;23.382;2023-05-21T06:18:35;94174.75;;;23.37;77.08
12775;BME280;6451;42.630;23.382;2023-05-21T06:21:02;94173.84;;;22.91;79.22
12775;BME280;6451;42.630;23.382;2023-05-21T06:23:29;94170.88;;;22.62;79.34
12775;BME280;6451;42.630;23.382;2023-05-21T06:25:57;94169.47;;;22.54;79.97
12775;BME280;6451;42.630;23.382;2023-05-21T06:28:26;94172.69;;;22.52;81.61
12775;BME280;6451;42.630;23.382;2023-05-21T06:30:52;94162.72;;;22.74;79.66
12775;BME280;6451;42.630;23.382;2023-05-21T06:33:19;94176.41;;;22.62;78.31
12775;BME280;6451;42.630;23.382;2023-05-21T06:35:47;94173.75;;;22.18;81.01
12775;BME280;6451;42.630;23.382;2023-05-21T06:38:14;94149.44;;;22.30;80.28
12775;BME280;6451;42.630;23.382;2023-05-21T06:40:41;94169.50;;;22.34;80.82
12775;BME280;6451;42.630;23.382;2023-05-21T06:43:09;94138.66;;;22.35;82.10
12775;BME280;6451;42.630;23.382;2023-05-21T06:45:37;94158.13;;;22.88;79.18
12775;BME280;6451;42.630;23.382;2023-05-21T06:48:04;94157.03;;;23.01;78.78
12775;BME280;6451;42.630;23.382;2023-05-21T06:50:31;94153.88;;;22.99;78.67
12775;BME280;6451;42.630;23.382;2023-05-21T06:52:58;94158.66;;;23.15;78.25
12775;BME280;6451;42.630;23.382;2023-05-21T06:55:25;94156.34;;;23.46;78.61
12775;BME280;6451;42.630;23.382;2023-05-21T06:57:52;94156.94;;;23.21;78.75
12775;BME280;6451;42.630;23.382;2023-05-21T07:00:19;94157.81;;;23.51;76.22
12775;BME280;6451;42.630;23.382;2023-05-21T07:02:48;94151.66;;;23.59;77.00
12775;BME280;6451;42.630;23.382;2023-05-21T07:05:15;94146.69;;;23.83;76.41
12775;BME280;6451;42.630;23.382;2023-05-21T07:07:42;94159.28;;;23.72;75.20
12775;BME280;6451;42.630;23.382;2023-05-21T07:10:09;94143.88;;;23.54;76.25
12775;BME280;6451;42.630;23.382;2023-05-21T07:12:36;94140.41;;;22.85;75.41
12775;BME280;6451;42.630;23.382;2023-05-21T07:15:06;94148.06;;;22.58;75.03
12775;BME280;6451;42.630;23.382;2023-05-21T07:17:33;94119.81;;;23.02;71.60
12775;BME280;6451;42.630;23.382;2023-05-21T07:20:03;94139.97;;;23.36;72.31
12775;BME280;6451;42.630;23.382;2023-05-21T07:22:32;94158.75;;;23.44;74.01
12775;BME280;6451;42.630;23.382;2023-05-21T07:24:59;94148.72;;;23.67;74.10
12775;BME280;6451;42.630;23.382;2023-05-21T07:27:26;94146.72;;;23.51;73.07
12775;BME280;6451;42.630;23.382;2023-05-21T07:29:53;94142.75;;;23.52;73.10
12775;BME280;6451;42.630;23.382;2023-05-21T07:32:19;94157.19;;;23.76;73.61
12775;BME280;6451;42.630;23.382;2023-05-21T07:34:46;94146.16;;;24.34;72.16
12775;BME280;6451;42.630;23.382;2023-05-21T07:37:15;94156.31;;;23.95;73.66
12775;BME280;6451;42.630;23.382;2023-05-21T07:39:42;94153.78;;;24.01;73.29
12775;BME280;6451;42.630;23.382;2023-05-21T07:42:09;94146.91;;;23.60;75.02
12775;BME280;6451;42.630;23.382;2023-05-21T07:44:36;94167.78;;;24.10;73.35
12775;BME280;6451;42.630;23.382;2023-05-21T07:47:03;94149.50;;;23.67;71.47
12775;BME280;6451;42.630;23.382;2023-05-21T07:49:30;94160.84;;;23.56;69.44
12775;BME280;6451;42.630;23.382;2023-05-21T07:51:57;94162.66;;;23.47;70.44
12775;BME280;6451;42.630;23.382;2023-05-21T07:54:31;94154.19;;;23.70;70.69
12775;BME280;6451;42.630;23.382;2023-05-21T07:56:58;94157.28;;;23.56;68.70
12775;BME280;6451;42.630;23.382;2023-05-21T07:59:26;94158.31;;;23.95;68.77
12775;BME280;6451;42.630;23.382;2023-05-21T08:01:53;94158.56;;;23.84;67.89
12775;BME280;6451;42.630;23.382;2023-05-21T08:04:20;94155.78;;;24.00;70.01
12775;BME280;6451;42.630;23.382;2023-05-21T08:06:46;94145.19;;;24.40;66.05
12775;BME280;6451;42.630;23.382;2023-05-21T08:09:14;94153.50;;;24.40;59.96
12775;BME280;6451;42.630;23.382;2023-05-21T08:11:42;94146.00;;;24.54;58.01
12775;BME280;6451;42.630;23.382;2023-05-21T08:14:09;94159.78;;;24.83;56.07
12775;BME280;6451;42.630;23.382;2023-05-21T08:16:46;94139.53;;;24.44;57.08
12775;BME280;6451;42.630;23.382;2023-05-21T08:19:13;94134.69;;;24.99;57.04
12775;BME280;6451;42.630;23.382;2023-05-21T08:21:40;94146.25;;;24.72;57.52
12775;BME280;6451;42.630;23.382;2023-05-21T08:24:07;94128.19;;;24.93;55.04
12775;BME280;6451;42.630;23.382;2023-05-21T08:26:33;94145.66;;;24.52;55.45
12775;BME280;6451;42.630;23.382;2023-05-21T08:29:02;94142.09;;;24.22;54.39
12775;BME280;6451;42.630;23.382;2023-05-21T08:31:29;94124.78;;;24.18;53.60
12775;BME280;6451;42.630;23.382;2023-05-21T08:33:56;94137.78;;;24.50;54.02
12775;BME280;6451;42.630;23.382;2023-05-21T08:36:23;94144.91;;;24.06;53.46
12775;BME280;6451;42.630;23.382;2023-05-21T08:38:50;94151.50;;;24.41;54.20
12775;BME280;6451;42.630;23.382;2023-05-21T08:41:19;94150.63;;;25.11;53.62
12775;BME280;6451;42.630;23.382;2023-05-21T08:43:53;94161.84;;;25.08;52.64
12775;BME280;6451;42.630;23.382;2023-05-21T08:46:22;94145.91;;;24.83;52.88
12775;BME280;6451;42.630;23.382;2023-05-21T08:48:51;94149.72;;;25.02;53.31
12775;BME280;6451;42.630;23.382;2023-05-21T08:51:20;94151.31;;;24.61;56.46
12775;BME280;6451;42.630;23.382;2023-05-21T08:53:49;94147.03;;;24.85;56.36
12775;BME280;6451;42.630;23.382;2023-05-21T08:56:17;94140.09;;;24.52;57.48
12775;BME280;6451;42.630;23.382;2023-05-21T08:58:45;94133.31;;;24.53;57.54
12775;BME280;6451;42.630;23.382;2023-05-21T09:01:13;94126.03;;;24.84;58.37
12775;BME280;6451;42.630;23.382;2023-05-21T09:03:44;94143.69;;;24.90;58.45
12775;BME280;6451;42.630;23.382;2023-05-21T09:06:12;94147.63;;;25.18;57.20
12775;BME280;6451;42.630;23.382;2023-05-21T09:08:43;94146.28;;;25.48;58.16
12775;BME280;6451;42.630;23.382;2023-05-21T09:11:11;94154.41;;;25.17;57.41
12775;BME280;6451;42.630;23.382;2023-05-21T09:13:39;94152.84;;;25.16;56.40
12775;BME280;6451;42.630;23.382;2023-05-21T09:16:08;94139.53;;;25.11;55.76
12775;BME280;6451;42.630;23.382;2023-05-21T09:18:35;94160.56;;;24.83;53.53
12775;BME280;6451;42.630;23.382;2023-05-21T09:21:22;94158.75;;;24.51;49.68
12775;BME280;6451;42.630;23.382;2023-05-21T09:23:54;94162.47;;;24.86;49.64
12775;BME280;6451;42.630;23.382;2023-05-21T09:26:22;94146.38;;;24.94;51.58
12775;BME280;6451;42.630;23.382;2023-05-21T09:28:49;94158.16;;;24.85;49.59
12775;BME280;6451;42.630;23.382;2023-05-21T09:31:16;94151.34;;;24.74;48.82
12775;BME280;6451;42.630;23.382;2023-05-21T09:33:46;94138.81;;;24.69;49.18
12775;BME280;6451;42.630;23.382;2023-05-21T09:36:16;94120.03;;;24.73;48.19
12775;BME280;6451;42.630;23.382;2023-05-21T09:38:46;94148.28;;;25.22;49.40
12775;BME280;6451;42.630;23.382;2023-05-21T09:41:13;94131.38;;;25.30;48.56
12775;BME280;6451;42.630;23.382;2023-05-21T09:43:41;94139.34;;;25.53;46.61
12775;BME280;6451;42.630;23.382;2023-05-21T09:46:08;94098.28;;;25.22;46.76
12775;BME280;6451;42.630;23.382;2023-05-21T09:48:36;94139.34;;;25.66;46.58
12775;BME280;6451;42.630;23.382;2023-05-21T09:51:09;94150.06;;;25.04;45.37
12775;BME280;6451;42.630;23.382;2023-05-21T09:53:43;94143.28;;;25.30;44.73
12775;BME280;6451;42.630;23.382;2023-05-21T09:56:10;94135.16;;;24.98;45.27
12775;BME280;6451;42.630;23.382;2023-05-21T09:58:38;94138.94;;;25.29;46.37
12775;BME280;6451;42.630;23.382;2023-05-21T10:01:06;94133.91;;;25.62;46.01
12775;BME280;6451;42.630;23.382;2023-05-21T10:03:38;94109.69;;;25.63;46.58
12775;BME280;6451;42.630;23.382;2023-05-21T10:06:07;94140.88;;;25.92;44.25
12775;BME280;6451;42.630;23.382;2023-05-21T10:08:35;94123.59;;;25.97;44.95
12775;BME280;6451;42.630;23.382;2023-05-21T10:11:04;94139.34;;;25.66;42.94
12775;BME280;6451;42.630;23.382;2023-05-21T10:13:33;94126.69;;;25.52;42.34
12775;BME280;6451;42.630;23.382;2023-05-21T10:16:05;94131.25;;;25.59;42.62
12775;BME280;6451;42.630;23.382;2023-05-21T10:18:32;94130.75;;;25.38;43.60
12775;BME280;6451;42.630;23.382;2023-05-21T10:21:00;94135.47;;;25.98;41.42
12775;BME280;6451;42.630;23.382;2023-05-21T10:23:28;94118.56;;;26.05;40.94
12775;BME280;6451;42.630;23.382;2023-05-21T10:25:56;94132.31;;;25.87;41.77
12775;BME280;6451;42.630;23.382;2023-05-21T10:28:27;94101.97;;;25.32;42.18
12775;BME280;6451;42.630;23.382;2023-05-21T10:30:54;94111.63;;;25.88;43.82
12775;BME280;6451;42.630;23.382;2023-05-21T10:33:22;94115.50;;;25.30;44.34
12775;BME280;6451;42.630;23.382;2023-05-21T10:35:50;94114.56;;;25.71;43.18
12775;BME280;6451;42.630;23.382;2023-05-21T10:38:18;94113.97;;;26.11;42.73
12775;BME280;6451;42.630;23.382;2023-05-21T10:40:46;94091.97;;;25.69;44.63
12775;BME280;6451;42.630;23.382;2023-05-21T10:43:30;94119.44;;;25.80;45.38
12775;BME280;6451;42.630;23.382;2023-05-21T10:46:23;94113.00;;;25.70;46.06
12775;BME280;6451;42.630;23.382;2023-05-21T10:49:02;94111.13;;;26.02;45.76
12775;BME280;6451;42.630;23.382;2023-05-21T10:51:41;94105.09;;;26.03;46.03
12775;BME280;6451;42.630;23.382;2023-05-21T10:54:37;94115.03;;;25.44;45.26
12775;BME280;6451;42.630;23.382;2023-05-21T10:57:19;94107.19;;;26.34;46.02
12775;BME280;6451;42.630;23.382;2023-05-21T10:59:52;94109.22;;;25.99;46.40
12775;BME280;6451;42.630;23.382;2023-05-21T11:02:24;94103.66;;;25.77;46.46
12775;BME280;6451;42.630;23.382;2023-05-21T11:04:57;94105.09;;;26.03;45.49
12775;BME280;6451;42.630;23.382;2023-05-21T11:07:51;94103.59;;;25.42;45.88
12775;BME280;6451;42.630;23.382;2023-05-21T11:10:32;94084.38;;;25.48;46.57
12775;BME280;6451;42.630;23.382;2023-05-21T11:13:06;94050.56;;;25.49;46.80
12775;BME280;6451;42.630;23.382;2023-05-21T11:16:02;94100.00;;;26.24;47.40
12775;BME280;6451;42.630;23.382;2023-05-21T11:18:58;94093.84;;;26.51;44.87
12775;BME280;6451;42.630;23.382;2023-05-21T11:21:28;94097.78;;;25.97;44.43
12775;BME280;6451;42.630;23.382;2023-05-21T11:23:58;94090.69;;;26.62;43.27
12775;BME280;6451;42.630;23.382;2023-05-21T11:26:28;94076.81;;;26.71;43.77
12775;BME280;6451;42.630;23.382;2023-05-21T11:29:06;94077.66;;;26.58;43.84
12775;BME280;6451;42.630;23.382;2023-05-21T11:31:35;94082.84;;;26.69;42.67
12775;BME280;6451;42.630;23.382;2023-05-21T11:34:11;94089.25;;;26.13;42.77
12775;BME280;6451;42.630;23.382;2023-05-21T11:36:38;94085.38;;;26.11;44.19
12775;BME280;6451;42.630;23.382;2023-05-21T11:39:10;94082.53;;;26.01;45.88
12775;BME280;6451;42.630;23.382;2023-05-21T11:41:51;94077.38;;;25.43;43.86
12775;BME280;6451;42.630;23.382;2023-05-21T11:44:20;94066.56;;;25.58;43.98
12775;BME280;6451;42.630;23.382;2023-05-21T11:47:05;94072.63;;;25.31;45.26
12775;BME280;6451;42.630;23.382;2023-05-21T11:49:33;94076.06;;;25.22;45.58
12775;BME280;6451;42.630;23.382;2023-05-21T11:52:01;94072.88;;;25.24;45.02
12775;BME280;6451;42.630;23.382;2023-05-21T11:54:29;94075.66;;;25.59;45.00
12775;BME280;6451;42.630;23.382;2023-05-21T11:56:58;94048.34;;;25.44;45.53
12775;BME280;6451;42.630;23.382;2023-05-21T11:59:26;94081.28;;;25.68;45.48
12775;BME280;6451;42.630;23.382;2023-05-21T12:01:53;94067.19;;;25.15;46.54
12775;BME280;6451;42.630;23.382;2023-05-21T12:04:22;94058.69;;;25.44;45.96
12775;BME280;6451;42.630;23.382;2023-05-21T12:06:49;94065.19;;;25.28;46.39
12775;BME280;6451;42.630;23.382;2023-05-21T12:09:17;94058.09;;;25.14;46.11
12775;BME280;6451;42.630;23.382;2023-05-21T12:11:44;94071.06;;;25.30;46.04
12775;BME280;6451;42.630;23.382;2023-05-21T12:14:11;94064.78;;;25.17;46.69
12775;BME280;6451;42.630;23.382;2023-05-21T12:16:39;94059.09;;;25.20;46.84
12775;BME280;6451;42.630;23.382;2023-05-21T12:19:06;94049.66;;;25.05;46.76
12775;BME280;6451;42.630;23.382;2023-05-21T12:21:34;94052.28;;;25.34;46.38
12775;BME280;6451;42.630;23.382;2023-05-21T12:24:01;94027.16;;;24.78;46.79
12775;BME280;6451;42.630;23.382;2023-05-21T12:26:29;94064.66;;;24.95;47.56
12775;BME280;6451;42.630;23.382;2023-05-21T12:28:58;94033.91;;;24.64;48.45
12775;BME280;6451;42.630;23.382;2023-05-21T12:31:25;94059.84;;;24.45;50.80
12775;BME280;6451;42.630;23.382;2023-05-21T12:33:52;94065.97;;;24.52;51.85
12775;BME280;6451;42.630;23.382;2023-05-21T12:36:21;94060.56;;;24.61;52.34
12775;BME280;6451;42.630;23.382;2023-05-21T12:38:50;94057.44;;;24.72;52.40
12775;BME280;6451;42.630;23.382;2023-05-21T12:41:17;94055.22;;;24.54;53.13
12775;BME280;6451;42.630;23.382;2023-05-21T12:43:49;94052.91;;;25.04;52.39
12775;BME280;6451;42.630;23.382;2023-05-21T12:46:16;94045.44;;;24.75;52.60
12775;BME280;6451;42.630;23.382;2023-05-21T12:48:52;94041.44;;;24.89;53.44
12775;BME280;6451;42.630;23.382;2023-05-21T12:51:22;94019.22;;;25.14;53.24
12775;BME280;6451;42.630;23.382;2023-05-21T12:53:50;94039.34;;;25.06;54.02
12775;BME280;6451;42.630;23.382;2023-05-21T12:56:18;94049.78;;;24.89;53.16
12775;BME280;6451;42.630;23.382;2023-05-21T12:58:49;94040.88;;;25.19;53.13
12775;BME280;6451;42.630;23.382;2023-05-21T13:01:16;94038.63;;;25.27;52.85
12775;BME280;6451;42.630;23.382;2023-05-21T13:03:43;94041.22;;;25.56;52.37
12775;BME280;6451;42.630;23.382;2023-05-21T13:06:12;94033.50;;;25.38;52.14